createdAt,value
2019-04-20T00:04:26.959Z,13.77
2019-04-20T00:07:12.271Z,13.80
2019-04-20T00:09:55.420Z,13.78
2019-04-20T00:12:34.140Z,13.74
2019-04-20T00:14:58.644Z,13.70
2019-04-20T00:17:32.988Z,13.67
2019-04-20T00:20:04.695Z,13.72
2019-04-20T00:23:13.454Z,13.74
2019-04-20T00:26:07.717Z,13.73
2019-04-20T00:28:45.627Z,13.69
2019-04-20T00:31:40.303Z,13.65
2019-04-20T00:34:03.748Z,13.59
2019-04-20T00:36:27.126Z,13.52
2019-04-20T00:38:58.265Z,13.48
2019-04-20T00:41:24.673Z,13.49
2019-04-20T00:43:53.378Z,13.47
2019-04-20T00:46:28.344Z,13.47
2019-04-20T00:48:55.825Z,13.45
2019-04-20T00:51:35.320Z,13.40
2019-04-20T00:53:51.775Z,13.38
2019-04-20T00:56:18.211Z,13.35
2019-04-20T00:59:03.096Z,13.34
2019-04-20T01:01:36.207Z,13.31
2019-04-20T01:04:07.121Z,13.28
2019-04-20T01:06:52.537Z,13.27
2019-04-20T01:09:32.861Z,13.29
2019-04-20T01:12:05.167Z,13.28
2019-04-20T01:14:37.897Z,13.28
2019-04-20T01:17:07.194Z,13.22
2019-04-20T01:19:28.017Z,13.16
2019-04-20T01:22:01.268Z,13.09
2019-04-20T01:24:32.814Z,13.05
2019-04-20T01:26:58.291Z,13.03
2019-04-20T01:29:34.934Z,13.01
2019-04-20T01:32:06.147Z,13.01
2019-04-20T01:34:37.993Z,13.01
2019-04-20T01:37:09.517Z,12.99
2019-04-20T01:39:28.349Z,12.94
2019-04-20T01:41:50.449Z,12.91
2019-04-20T01:44:24.567Z,12.86
2019-04-20T01:46:54.848Z,12.88
2019-04-20T01:49:21.036Z,12.89
2019-04-20T01:51:53.761Z,12.88
2019-04-20T01:54:32.158Z,12.87
2019-04-20T01:56:58.926Z,12.86
2019-04-20T01:59:50.151Z,12.84
2019-04-20T02:02:24.412Z,12.81
2019-04-20T02:04:58.808Z,12.78
2019-04-20T02:07:30.556Z,12.74
2019-04-20T02:09:58.350Z,12.71
2019-04-20T02:12:26.948Z,12.67
2019-04-20T02:14:56.089Z,12.63
2019-04-20T02:17:30.070Z,12.58
2019-04-20T02:20:12.527Z,12.59
2019-04-20T02:22:37.274Z,12.54
2019-04-20T02:24:47.132Z,12.50
2019-04-20T02:27:14.777Z,12.49
2019-04-20T02:30:07.404Z,12.49
2019-04-20T02:32:45.670Z,12.50
2019-04-20T02:38:21.798Z,12.34
2019-04-20T02:40:52.655Z,12.31
2019-04-20T02:43:15.285Z,12.23
2019-04-20T02:48:13.461Z,12.14
2019-04-20T02:50:43.280Z,12.11
2019-04-20T02:53:32.740Z,12.07
2019-04-20T02:58:07.669Z,11.91
2019-04-20T03:00:35.149Z,11.84
2019-04-20T03:02:53.093Z,11.77
2019-04-20T03:05:22.966Z,11.71
2019-04-20T03:08:01.148Z,11.67
2019-04-20T03:10:39.387Z,11.67
2019-04-20T03:12:57.021Z,11.65
2019-04-20T03:15:28.954Z,11.60
2019-04-20T03:17:57.465Z,11.68
2019-04-20T03:20:32.297Z,11.66
2019-04-20T03:23:17.734Z,11.70
2019-04-20T03:25:45.069Z,11.70
2019-04-20T03:28:10.684Z,11.63
2019-04-20T03:31:26.913Z,11.61
2019-04-20T03:35:52.771Z,11.59
2019-04-20T03:38:11.716Z,11.61
2019-04-20T03:40:34.581Z,11.62
2019-04-20T03:42:50.707Z,11.61
2019-04-20T03:45:21.309Z,11.60
2019-04-20T03:47:57.542Z,11.61
2019-04-20T03:50:37.121Z,11.59
2019-04-20T03:53:12.969Z,11.59
2019-04-20T03:55:54.082Z,11.58
2019-04-20T03:58:55.613Z,11.56
2019-04-20T04:02:17.067Z,11.59
2019-04-20T04:04:27.443Z,11.60
2019-04-20T04:06:46.302Z,11.58
2019-04-20T04:09:22.858Z,11.53
2019-04-20T04:11:52.338Z,11.52
2019-04-20T04:14:07.120Z,11.47
2019-04-20T04:16:42.038Z,11.45
2019-04-20T04:19:12.706Z,11.45
2019-04-20T04:21:49.746Z,11.41
2019-04-20T04:24:12.838Z,11.44
2019-04-20T04:26:48.890Z,11.53
2019-04-20T04:29:28.831Z,11.59
2019-04-20T04:31:59.538Z,11.63
2019-04-20T04:34:19.028Z,11.67
2019-04-20T04:36:49.942Z,11.68
2019-04-20T04:39:21.171Z,11.71
2019-04-20T04:41:52.294Z,11.75
2019-04-20T04:44:11.024Z,11.82
2019-04-20T04:46:26.791Z,11.89
2019-04-20T04:49:03.922Z,11.97
2019-04-20T04:51:29.484Z,12.03
2019-04-20T04:53:59.882Z,12.07
2019-04-20T04:56:23.981Z,12.08
2019-04-20T04:58:51.713Z,12.14
2019-04-20T05:01:24.857Z,12.22
2019-04-20T05:04:17.477Z,12.32
2019-04-20T05:06:33.124Z,12.41
2019-04-20T05:08:53.040Z,12.50
2019-04-20T05:11:19.607Z,13.44
2019-04-20T05:13:54.678Z,15.47
2019-04-20T05:16:38.297Z,17.87
2019-04-20T05:19:09.405Z,19.91
2019-04-20T05:21:53.870Z,21.62
2019-04-20T05:25:05.734Z,22.16
2019-04-20T05:27:51.230Z,21.48
2019-04-20T05:30:01.303Z,19.99
2019-04-20T05:32:41.351Z,18.75
2019-04-20T05:35:24.009Z,19.16
2019-04-20T05:37:58.612Z,21.88
2019-04-20T05:40:20.605Z,24.71
2019-04-20T05:42:48.842Z,26.99
2019-04-20T05:45:18.160Z,28.55
2019-04-20T05:47:50.801Z,29.77
2019-04-20T05:50:16.578Z,30.98
2019-04-20T05:52:59.847Z,31.74
2019-04-20T05:55:16.293Z,32.42
2019-04-20T05:57:50.735Z,33.08
2019-04-20T06:00:14.220Z,33.86
2019-04-20T06:02:45.165Z,34.54
2019-04-20T06:05:17.741Z,35.30
2019-04-20T06:07:42.518Z,34.99
2019-04-20T06:10:11.419Z,35.60
2019-04-20T06:12:39.998Z,36.69
2019-04-20T06:15:15.533Z,37.49
2019-04-20T06:18:02.825Z,37.81
2019-04-20T06:20:37.918Z,38.38
2019-04-20T06:23:28.519Z,38.31
2019-04-20T06:26:04.084Z,39.04
2019-04-20T06:28:22.807Z,38.96
2019-04-20T06:30:51.070Z,39.67
2019-04-20T06:36:32.259Z,41.15
2019-04-20T06:39:02.233Z,42.23
2019-04-20T06:41:55.452Z,43.15
2019-04-20T06:44:08.632Z,44.12
2019-04-20T06:46:29.210Z,44.12
2019-04-20T06:49:05.606Z,44.02
2019-04-20T06:51:34.706Z,44.19
2019-04-20T06:53:52.708Z,44.27
2019-04-20T06:56:35.630Z,44.03
2019-04-20T06:59:12.623Z,44.23
2019-04-20T07:01:42.322Z,44.18
2019-04-20T07:04:22.419Z,43.54
2019-04-20T07:09:09.606Z,44.72
2019-04-20T07:11:31.022Z,45.73
2019-04-20T07:13:47.001Z,45.11
2019-04-20T07:16:40.913Z,45.16
2019-04-20T07:19:31.365Z,45.58
2019-04-20T07:22:24.961Z,45.98
2019-04-20T07:24:53.316Z,44.94
2019-04-20T07:27:13.652Z,45.92
2019-04-20T07:29:46.367Z,45.17
2019-04-20T07:32:07.551Z,45.09
2019-04-20T07:34:40.171Z,45.64
2019-04-20T07:37:55.054Z,46.76
2019-04-20T07:39:48.231Z,47.26
2019-04-20T07:42:23.055Z,47.86
2019-04-20T07:44:50.803Z,48.29
2019-04-20T07:47:24.152Z,49.08
2019-04-20T07:49:41.642Z,48.36
2019-04-20T07:51:53.950Z,46.31
2019-04-20T07:54:47.593Z,45.79
2019-04-20T07:57:09.977Z,47.07
2019-04-20T07:59:30.071Z,48.24
2019-04-20T08:02:24.951Z,48.86
2019-04-20T08:05:01.770Z,47.77
2019-04-20T08:07:14.535Z,47.91
2019-04-20T08:09:49.757Z,48.28
2019-04-20T08:12:49.958Z,49.20
2019-04-20T08:15:24.103Z,49.82
2019-04-20T08:20:09.427Z,50.65
2019-04-20T08:22:42.447Z,50.68
2019-04-20T08:25:04.625Z,50.81
2019-04-20T08:27:23.630Z,51.24
2019-04-20T08:30:12.423Z,51.29
2019-04-20T08:33:10.004Z,51.59
2019-04-20T08:35:48.094Z,52.02
2019-04-20T08:38:36.948Z,52.19
2019-04-20T08:40:43.608Z,52.17
2019-04-20T08:43:21.063Z,51.90
2019-04-20T08:45:41.696Z,52.39
2019-04-20T08:48:17.399Z,52.21
2019-04-20T08:50:41.463Z,51.30
2019-04-20T08:53:21.950Z,51.48
2019-04-20T08:55:33.508Z,52.03
2019-04-20T08:57:49.286Z,51.73
2019-04-20T09:00:18.263Z,51.38
2019-04-20T09:02:52.314Z,51.13
2019-04-20T09:05:32.987Z,51.41
2019-04-20T09:07:56.592Z,50.55
2019-04-20T09:10:39.528Z,50.76
2019-04-20T09:12:58.592Z,50.46
2019-04-20T09:15:14.862Z,49.87
2019-04-20T09:18:09.098Z,49.19
2019-04-20T09:20:45.830Z,49.28
2019-04-20T09:23:17.185Z,46.86
2019-04-20T09:26:04.804Z,46.03
2019-04-20T09:28:32.264Z,45.46
2019-04-20T09:31:28.261Z,44.80
2019-04-20T09:34:21.611Z,44.62
2019-04-20T09:36:49.873Z,44.95
2019-04-20T09:39:21.113Z,44.05
2019-04-20T09:42:01.851Z,42.52
2019-04-20T09:44:35.453Z,42.23
2019-04-20T09:47:00.462Z,42.04
2019-04-20T09:49:39.967Z,40.78
2019-04-20T09:52:12.241Z,37.83
2019-04-20T09:54:48.156Z,34.42
2019-04-20T09:57:14.985Z,31.72
2019-04-20T09:59:44.093Z,30.11
2019-04-20T10:02:04.753Z,28.74
2019-04-20T10:04:23.968Z,27.55
2019-04-20T10:06:51.790Z,26.76
2019-04-20T10:09:21.948Z,26.36
2019-04-20T10:11:49.353Z,25.92
2019-04-20T10:14:17.421Z,25.48
2019-04-20T10:16:44.927Z,25.08
2019-04-20T10:19:13.662Z,24.80
2019-04-20T10:21:41.591Z,24.49
2019-04-20T10:24:08.794Z,24.44
2019-04-20T10:26:36.606Z,24.30
2019-04-20T10:29:04.002Z,24.12
2019-04-20T10:31:35.700Z,23.97
2019-04-20T10:34:00.218Z,24.06
2019-04-20T10:36:59.648Z,24.11
2019-04-20T10:39:27.079Z,24.23
2019-04-20T10:41:58.757Z,24.28
2019-04-20T10:44:24.975Z,24.38
2019-04-20T10:46:53.377Z,24.37
2019-04-20T10:49:20.579Z,24.40
2019-04-20T10:51:47.728Z,24.48
2019-04-20T10:54:16.144Z,24.55
2019-04-20T10:56:43.599Z,24.40
2019-04-20T10:59:11.878Z,24.24
2019-04-20T11:01:40.085Z,24.27
2019-04-20T11:04:08.428Z,24.25
2019-04-20T11:06:36.517Z,24.31
2019-04-20T11:09:06.791Z,24.35
2019-04-20T11:11:35.891Z,24.38
2019-04-20T11:14:11.789Z,24.32
2019-04-20T11:16:32.929Z,24.32
2019-04-20T11:19:01.038Z,24.38
2019-04-20T11:21:28.505Z,24.35
2019-04-20T11:23:56.691Z,24.27
2019-04-20T11:26:24.377Z,24.20
2019-04-20T11:28:52.485Z,23.89
2019-04-20T11:31:20.085Z,23.83
2019-04-20T11:33:48.015Z,23.93
2019-04-20T11:36:15.348Z,24.06
2019-04-20T11:38:42.913Z,24.14
2019-04-20T11:41:18.233Z,24.14
2019-04-20T11:46:07.099Z,24.30
2019-04-20T11:48:34.371Z,24.33
2019-04-20T11:51:01.523Z,24.38
2019-04-20T11:53:30.450Z,24.43
2019-04-20T11:55:58.467Z,24.50
2019-04-20T11:58:26.150Z,24.50
2019-04-20T12:01:01.254Z,24.61
2019-04-20T12:03:31.484Z,24.64
2019-04-20T12:05:59.011Z,24.54
2019-04-20T12:08:24.872Z,24.51
2019-04-20T12:10:56.676Z,24.56
2019-04-20T12:13:22.683Z,24.59
2019-04-20T12:15:49.984Z,24.58
2019-04-20T12:18:17.983Z,24.53
2019-04-20T12:20:46.993Z,24.56
2019-04-20T12:23:14.301Z,24.58
2019-04-20T12:25:44.199Z,24.62
2019-04-20T12:28:11.630Z,24.58
2019-04-20T12:30:39.729Z,24.58
2019-04-20T12:33:07.476Z,24.56
2019-04-20T12:35:36.121Z,24.67
2019-04-20T12:38:03.544Z,24.75
2019-04-20T12:40:32.346Z,24.69
2019-04-20T12:42:59.654Z,24.76
2019-04-20T12:45:27.159Z,24.83
2019-04-20T12:47:55.485Z,24.83
2019-04-20T12:50:23.469Z,24.86
2019-04-20T12:52:50.731Z,24.87
2019-04-20T12:55:18.814Z,24.78
2019-04-20T12:57:46.992Z,24.83
2019-04-20T13:00:15.372Z,24.88
2019-04-20T13:02:43.273Z,24.93
2019-04-20T13:05:13.457Z,25.03
2019-04-20T13:07:46.344Z,24.85
2019-04-20T13:10:11.637Z,24.84
2019-04-20T13:12:56.410Z,24.64
2019-04-20T13:15:56.279Z,24.73
2019-04-20T13:18:29.571Z,24.80
2019-04-20T13:20:58.815Z,24.88
2019-04-20T13:23:26.824Z,24.88
2019-04-20T13:25:54.937Z,24.95
2019-04-20T13:28:23.165Z,24.84
2019-04-20T13:30:50.461Z,24.83
2019-04-20T13:33:17.677Z,24.82
2019-04-20T13:35:46.091Z,24.81
2019-04-20T13:38:20.339Z,24.90
2019-04-20T13:40:48.170Z,24.92
2019-04-20T13:43:15.368Z,24.92
2019-04-20T13:45:42.712Z,24.82
2019-04-20T13:48:11.014Z,24.83
2019-04-20T13:50:38.275Z,24.84
2019-04-20T13:53:05.558Z,24.84
2019-04-20T13:55:33.846Z,24.88
2019-04-20T13:58:22.064Z,24.84
2019-04-20T14:01:12.616Z,24.81
2019-04-20T14:03:40.745Z,24.79
2019-04-20T14:06:08.996Z,24.79
2019-04-20T14:08:36.655Z,24.76
2019-04-20T14:11:05.180Z,24.77
2019-04-20T14:13:39.193Z,24.71
2019-04-20T14:16:02.980Z,24.65
2019-04-20T14:18:31.150Z,24.63
2019-04-20T14:20:58.412Z,24.60
2019-04-20T14:23:25.565Z,24.66
2019-04-20T14:25:52.780Z,24.67
2019-04-20T14:28:20.975Z,24.64
2019-04-20T14:30:49.865Z,24.72
2019-04-20T14:33:17.098Z,24.72
2019-04-20T14:35:45.119Z,24.69
2019-04-20T14:38:13.133Z,24.67
2019-04-20T14:40:40.394Z,24.63
2019-04-20T14:43:08.823Z,24.61
2019-04-20T14:45:36.647Z,24.58
2019-04-20T14:48:03.840Z,24.52
2019-04-20T14:50:31.721Z,24.59
2019-04-20T14:52:59.799Z,24.53
2019-04-20T14:55:27.266Z,24.52
2019-04-20T14:57:57.385Z,24.50
2019-04-20T15:01:06.786Z,24.54
2019-04-20T15:03:38.389Z,24.51
2019-04-20T15:06:05.588Z,24.68
2019-04-20T15:08:34.485Z,24.57
2019-04-20T15:11:02.975Z,24.53
2019-04-20T15:13:30.823Z,24.54
2019-04-20T15:15:58.995Z,24.49
2019-04-20T15:18:31.422Z,24.40
2019-04-20T15:21:00.043Z,24.33
2019-04-20T15:23:27.858Z,24.30
2019-04-20T15:25:55.302Z,24.26
2019-04-20T15:28:24.066Z,24.22
2019-04-20T15:30:52.105Z,24.18
2019-04-20T15:33:19.277Z,24.18
2019-04-20T15:35:46.375Z,24.14
2019-04-20T15:38:13.473Z,24.08
2019-04-20T15:40:41.476Z,24.03
2019-04-20T15:43:14.419Z,24.01
2019-04-20T15:45:39.134Z,23.99
2019-04-20T15:48:06.340Z,24.01
2019-04-20T15:50:33.913Z,23.98
2019-04-20T15:53:02.643Z,23.92
2019-04-20T15:55:35.575Z,23.87
2019-04-20T15:57:59.734Z,23.86
2019-04-20T16:00:26.895Z,23.86
2019-04-20T16:03:17.160Z,23.82
2019-04-20T16:05:49.306Z,23.83
2019-04-20T16:08:23.797Z,23.78
2019-04-20T16:10:51.071Z,23.74
2019-04-20T16:13:26.113Z,23.74
2019-04-20T16:15:47.653Z,23.71
2019-04-20T16:18:14.859Z,23.68
2019-04-20T16:20:52.018Z,23.68
2019-04-20T16:23:12.430Z,23.63
2019-04-20T16:26:05.880Z,23.54
2019-04-20T16:28:33.256Z,23.55
2019-04-20T16:31:01.484Z,23.50
2019-04-20T16:33:28.811Z,23.44
2019-04-20T16:35:56.434Z,23.44
2019-04-20T16:38:27.255Z,23.41
2019-04-20T16:40:54.453Z,23.36
2019-04-20T16:43:29.433Z,23.32
2019-04-20T16:45:51.047Z,23.32
2019-04-20T16:48:18.283Z,23.38
2019-04-20T16:50:46.777Z,23.35
2019-04-20T16:53:15.031Z,23.27
2019-04-20T16:55:43.066Z,23.24
2019-04-20T16:58:10.296Z,23.18
2019-04-20T17:00:37.759Z,23.10
2019-04-20T17:03:04.888Z,23.00
2019-04-20T17:05:32.020Z,22.94
2019-04-20T17:08:00.581Z,22.87
2019-04-20T17:10:28.891Z,22.92
2019-04-20T17:12:57.659Z,22.90
2019-04-20T17:15:25.570Z,22.90
2019-04-20T17:17:53.798Z,22.80
2019-04-20T17:20:24.975Z,22.77
2019-04-20T17:22:51.053Z,22.74
2019-04-20T17:25:19.642Z,22.61
2019-04-20T17:28:05.140Z,22.51
2019-04-20T17:30:59.012Z,22.40
2019-04-20T17:33:51.779Z,22.27
2019-04-20T17:36:12.432Z,22.16
2019-04-20T17:38:41.795Z,22.20
2019-04-20T17:41:29.145Z,22.18
2019-04-20T17:43:56.714Z,22.03
2019-04-20T17:46:12.125Z,21.94
2019-04-20T17:48:45.195Z,21.86
2019-04-20T17:51:22.430Z,21.89
2019-04-20T17:53:58.551Z,21.82
2019-04-20T17:56:24.354Z,21.78
2019-04-20T17:58:52.276Z,21.72
2019-04-20T18:02:02.288Z,21.60
2019-04-20T18:04:49.372Z,21.44
2019-04-20T18:07:00.858Z,21.25
2019-04-20T18:09:47.515Z,21.15
2019-04-20T18:11:52.768Z,21.08
2019-04-20T18:14:38.636Z,21.08
2019-04-20T18:17:11.021Z,21.14
2019-04-20T18:19:32.696Z,21.09
2019-04-20T18:22:01.646Z,20.90
2019-04-20T18:24:55.774Z,20.69
2019-04-20T18:27:18.760Z,20.58
2019-04-20T18:29:50.351Z,20.46
2019-04-20T18:32:05.347Z,20.32
2019-04-20T18:35:10.536Z,20.28
2019-04-20T18:37:39.612Z,20.15
2019-04-20T18:40:12.477Z,19.99
2019-04-20T18:43:09.373Z,19.82
2019-04-20T18:46:20.328Z,19.65
2019-04-20T18:48:50.958Z,19.51
2019-04-20T18:55:22.255Z,19.38
2019-04-20T18:58:15.233Z,19.51
2019-04-20T19:01:57.395Z,19.28
2019-04-20T19:04:41.781Z,19.11
2019-04-20T19:07:15.243Z,18.98
2019-04-20T19:09:43.194Z,18.91
2019-04-20T19:12:32.574Z,18.78
2019-04-20T19:15:37.391Z,18.69
2019-04-20T19:18:12.880Z,18.64
2019-04-20T19:20:37.013Z,18.59
2019-04-20T19:23:04.340Z,18.80
2019-04-20T19:25:36.987Z,18.75
2019-04-20T19:28:01.995Z,18.72
2019-04-20T19:30:37.418Z,18.62
2019-04-20T19:33:14.941Z,18.48
2019-04-20T19:35:45.415Z,18.46
2019-04-20T19:38:57.722Z,18.41
2019-04-20T19:45:17.538Z,18.28
2019-04-20T19:47:50.276Z,18.12
2019-04-20T19:50:44.141Z,18.08
2019-04-20T19:53:06.862Z,18.30
2019-04-20T19:55:20.773Z,18.61
2019-04-20T19:57:51.266Z,18.67
2019-04-20T20:00:06.380Z,18.59
2019-04-20T20:02:34.047Z,18.71
2019-04-20T20:05:07.159Z,18.60
2019-04-20T20:07:38.056Z,18.59
2019-04-20T20:10:05.236Z,18.44
2019-04-20T20:12:29.557Z,18.32
2019-04-20T20:14:57.425Z,18.15
2019-04-20T20:17:46.956Z,18.01
2019-04-20T20:20:19.954Z,17.93
2019-04-20T20:22:32.239Z,17.79
2019-04-20T20:24:52.637Z,17.64
2019-04-20T20:27:31.392Z,17.51
2019-04-20T20:30:03.799Z,17.42
2019-04-20T20:32:31.020Z,17.39
2019-04-20T20:34:58.596Z,17.38
2019-04-20T20:37:29.575Z,17.32
2019-04-20T20:39:53.803Z,17.21
2019-04-20T20:42:28.355Z,17.13
2019-04-20T20:44:52.608Z,17.02
2019-04-20T20:47:37.304Z,16.98
2019-04-20T20:50:07.975Z,16.92
2019-04-20T20:52:28.745Z,16.84
2019-04-20T20:54:52.591Z,16.75
2019-04-20T20:57:15.364Z,16.68
2019-04-20T20:59:49.426Z,16.60
2019-04-20T21:02:18.267Z,16.63
2019-04-20T21:04:37.689Z,16.58
2019-04-20T21:07:04.816Z,16.51
2019-04-20T21:09:33.439Z,16.43
2019-04-20T21:12:07.000Z,16.39
2019-04-20T21:14:34.701Z,16.37
2019-04-20T21:17:05.222Z,16.27
2019-04-20T21:19:49.727Z,16.19
2019-04-20T21:22:04.890Z,16.08
2019-04-20T21:24:30.345Z,16.01
2019-04-20T21:27:01.603Z,15.97
2019-04-20T21:29:35.372Z,15.94
2019-04-20T21:32:03.558Z,15.88
2019-04-20T21:34:26.145Z,15.82
2019-04-20T21:37:01.993Z,15.86
2019-04-20T21:39:34.574Z,15.82
2019-04-20T21:41:59.491Z,15.79
2019-04-20T21:44:28.494Z,15.77
2019-04-20T21:46:54.633Z,15.74
2019-04-20T21:49:36.184Z,15.77
2019-04-20T21:51:57.416Z,15.73
2019-04-20T21:54:20.192Z,15.66
2019-04-20T21:56:53.854Z,15.59
2019-04-20T21:59:24.432Z,15.58
2019-04-20T22:01:56.438Z,15.53
2019-04-20T22:04:14.892Z,15.47
2019-04-20T22:06:44.611Z,15.44
2019-04-20T22:09:12.809Z,15.50
2019-04-20T22:11:40.198Z,15.44
2019-04-20T22:14:12.888Z,15.38
2019-04-20T22:16:43.585Z,15.42
2019-04-20T22:19:22.437Z,15.32
2019-04-20T22:21:46.270Z,15.21
2019-04-20T22:24:19.470Z,15.14
2019-04-20T22:26:47.811Z,15.08
2019-04-20T22:29:02.535Z,15.16
2019-04-20T22:31:29.953Z,15.28
2019-04-20T22:34:02.281Z,15.29
2019-04-20T22:36:34.123Z,15.18
2019-04-20T22:39:13.794Z,15.06
2019-04-20T22:41:59.124Z,15.00
2019-04-20T22:44:26.323Z,14.99
2019-04-20T22:46:52.165Z,14.97
2019-04-20T22:49:36.344Z,15.01
2019-04-20T22:51:58.819Z,14.97
2019-04-20T22:54:36.346Z,14.94
2019-04-20T22:56:57.200Z,14.90
2019-04-20T22:59:22.394Z,14.86
2019-04-20T23:01:51.471Z,14.80
2019-04-20T23:04:15.010Z,14.78
2019-04-20T23:06:47.727Z,14.76
2019-04-20T23:09:14.723Z,14.75
2019-04-20T23:11:42.109Z,14.74
2019-04-20T23:14:10.850Z,14.84
2019-04-20T23:16:43.871Z,14.87
2019-04-20T23:19:08.047Z,14.88
2019-04-20T23:21:35.373Z,14.85
2019-04-20T23:24:07.663Z,14.85
2019-04-20T23:26:36.866Z,14.79
2019-04-20T23:29:02.693Z,14.79
2019-04-20T23:31:30.746Z,14.75
2019-04-20T23:34:01.401Z,14.75
2019-04-20T23:36:36.506Z,14.72
2019-04-20T23:39:02.596Z,14.70
2019-04-20T23:41:28.016Z,14.63
2019-04-20T23:44:29.670Z,14.59
2019-04-20T23:47:21.871Z,14.53
2019-04-20T23:50:12.074Z,14.41
2019-04-20T23:52:42.823Z,14.31
2019-04-20T23:54:59.095Z,14.26
2019-04-20T23:57:22.216Z,14.25
2019-04-20T23:59:50.287Z,14.27
